Baruunturuun, Mongolia
Current Conditions -  °F | °C
As of 1:00 AM on Sunday 21 Dec 2014 (Local Time) from UNAA Reporting Station
Haze Haze  
Wind Chill: -2°   Ceiling: 10000
Heat Index: -2°   Visibility: 1.1mi
Dew Point: -6°   Wind: 2mph
Humidity: 85%   Direction: NA
Pressure: 30.45"   Gusts: NA
Location:  49.66°N, 94.39°E
Report Text: UNAA 201700Z VRB01MPS 1900 BR FEW001 BKN100 M19/M21 Q1031 NOSIGRMK QBB050 QFE750 52190055
Loading
Personal Weather Stations






























Interactive Weather Map New forecast layout! Learn more

10-Day Weather Forecast

Advertisements
Track Severe Weather on mobile